createdAt,value
2022-10-02T00:00:27.190Z,16.60
2022-10-02T00:03:35.100Z,11.80
2022-10-02T00:06:42.893Z,10.20
2022-10-02T00:09:50.474Z,10.80
2022-10-02T00:12:58.461Z,16.50
2022-10-02T00:16:06.383Z,11.90
2022-10-02T00:19:13.935Z,11.50
2022-10-02T00:22:21.938Z,12.60
2022-10-02T00:25:29.124Z,11.90
2022-10-02T00:28:37.286Z,15.90
2022-10-02T00:31:45.136Z,12.90
2022-10-02T00:34:52.428Z,13.80
2022-10-02T00:38:00.618Z,12.30
2022-10-02T00:41:08.290Z,14.90
2022-10-02T00:44:15.671Z,13.00
2022-10-02T00:47:23.842Z,14.10
2022-10-02T00:50:23.379Z,14.20
2022-10-02T00:53:31.230Z,12.10
2022-10-02T00:56:39.304Z,15.90
2022-10-02T00:59:47.058Z,13.50
2022-10-02T01:02:54.434Z,12.80
2022-10-02T01:06:02.405Z,17.00
2022-10-02T01:09:09.913Z,17.70
2022-10-02T01:12:17.314Z,16.10
2022-10-02T01:15:24.799Z,16.50
2022-10-02T01:18:32.697Z,17.00
2022-10-02T01:21:40.132Z,14.00
2022-10-02T01:24:47.844Z,13.40
2022-10-02T01:27:55.895Z,11.20
2022-10-02T01:31:03.440Z,11.80
2022-10-02T01:34:11.163Z,12.30
2022-10-02T01:37:19.141Z,12.80
2022-10-02T01:40:26.341Z,15.80
2022-10-02T01:43:34.401Z,12.10
2022-10-02T01:46:41.861Z,14.40
2022-10-02T01:49:49.094Z,13.80
2022-10-02T01:52:57.095Z,11.10
2022-10-02T01:56:05.205Z,7.60
2022-10-02T01:59:12.356Z,12.40
2022-10-02T02:02:20.113Z,12.20
2022-10-02T02:05:27.737Z,11.00
2022-10-02T02:08:35.227Z,11.10
2022-10-02T02:11:43.188Z,12.10
2022-10-02T02:14:50.801Z,10.20
2022-10-02T02:17:58.219Z,8.70
2022-10-02T02:21:05.740Z,9.10
2022-10-02T02:24:13.669Z,11.10
2022-10-02T02:27:21.191Z,7.90
2022-10-02T02:30:28.731Z,11.60
2022-10-02T02:33:36.692Z,19.30
2022-10-02T02:36:44.462Z,14.60
2022-10-02T02:39:51.904Z,14.90
2022-10-02T02:42:59.424Z,12.40
2022-10-02T02:46:06.647Z,10.30
2022-10-02T02:49:14.525Z,20.20
2022-10-02T02:52:22.354Z,19.30
2022-10-02T02:55:29.457Z,17.90
2022-10-02T02:58:37.315Z,25.30
2022-10-02T03:01:45.334Z,21.50
2022-10-02T03:04:52.538Z,18.90
2022-10-02T03:08:00.550Z,22.20
2022-10-02T03:11:08.058Z,24.00
2022-10-02T03:14:15.718Z,28.80
2022-10-02T03:17:23.630Z,19.50
2022-10-02T03:20:31.332Z,24.10
2022-10-02T03:23:38.994Z,20.10
2022-10-02T03:26:46.991Z,26.00
2022-10-02T03:29:54.584Z,22.90
2022-10-02T03:33:02.331Z,30.30
2022-10-02T03:36:10.068Z,23.80
2022-10-02T03:39:25.109Z,30.70
2022-10-02T03:42:22.119Z,25.90
2022-10-02T03:45:50.044Z,25.20
2022-10-02T03:48:34.678Z,29.50
2022-10-02T03:51:42.148Z,28.90
2022-10-02T03:54:49.390Z,26.00
2022-10-02T03:57:57.389Z,33.10
2022-10-02T04:01:04.490Z,31.60
2022-10-02T04:04:12.462Z,35.00
2022-10-02T04:07:20.423Z,31.10
2022-10-02T04:10:27.501Z,35.40
2022-10-02T04:13:35.222Z,32.20
2022-10-02T04:16:42.932Z,43.60
2022-10-02T04:19:50.095Z,36.30
2022-10-02T04:22:58.185Z,30.50
2022-10-02T04:26:05.663Z,32.70
2022-10-02T04:29:13.096Z,34.20
2022-10-02T04:32:20.587Z,36.40
2022-10-02T04:35:27.978Z,42.30
2022-10-02T04:38:35.928Z,31.70
2022-10-02T04:41:43.769Z,29.60
2022-10-02T04:44:51.259Z,32.70
2022-10-02T04:47:58.763Z,34.30
2022-10-02T04:51:05.931Z,35.60
2022-10-02T04:54:13.781Z,32.70
2022-10-02T04:57:21.396Z,39.70
2022-10-02T05:00:28.584Z,30.00
2022-10-02T05:03:36.607Z,30.70
2022-10-02T05:06:44.141Z,38.10
2022-10-02T05:09:51.345Z,36.20
2022-10-02T05:12:59.354Z,32.20
2022-10-02T05:16:07.024Z,34.10
2022-10-02T05:19:14.617Z,36.70
2022-10-02T05:22:22.207Z,35.10
2022-10-02T05:25:29.418Z,42.20
2022-10-02T05:28:37.455Z,41.00
2022-10-02T05:31:45.416Z,33.70
2022-10-02T05:34:52.545Z,29.40
2022-10-02T05:38:00.794Z,39.50
2022-10-02T05:41:08.382Z,34.50
2022-10-02T05:44:16.185Z,32.20
2022-10-02T05:47:24.191Z,37.00
2022-10-02T05:50:31.884Z,35.90
2022-10-02T05:53:39.374Z,38.90
2022-10-02T05:56:47.525Z,37.20
2022-10-02T05:59:55.016Z,37.20
2022-10-02T06:03:02.328Z,27.50
2022-10-02T06:06:09.995Z,39.30
2022-10-02T06:09:20.010Z,36.90
2022-10-02T06:12:28.421Z,38.40
2022-10-02T06:15:36.197Z,34.00
2022-10-02T06:18:44.382Z,41.20
2022-10-02T06:21:52.151Z,32.00
2022-10-02T06:24:59.964Z,31.60
2022-10-02T06:28:07.663Z,31.30
2022-10-02T06:31:15.280Z,33.10
2022-10-02T06:34:23.602Z,44.70
2022-10-02T06:37:31.397Z,37.90
2022-10-02T06:40:39.056Z,36.20
2022-10-02T06:43:47.306Z,39.70
2022-10-02T06:46:54.994Z,48.50
2022-10-02T06:50:02.746Z,39.80
2022-10-02T06:53:10.603Z,43.90
2022-10-02T06:56:17.910Z,42.80
2022-10-02T06:59:25.847Z,36.80
2022-10-02T07:02:34.177Z,37.90
2022-10-02T07:05:41.425Z,43.30
2022-10-02T07:08:49.369Z,43.40
2022-10-02T07:11:57.093Z,47.60
2022-10-02T07:15:04.343Z,42.10
2022-10-02T07:18:12.530Z,37.40
2022-10-02T07:21:20.693Z,43.00
2022-10-02T07:24:28.264Z,41.80
2022-10-02T07:27:36.276Z,41.70
2022-10-02T07:30:43.934Z,35.50
2022-10-02T07:33:51.589Z,33.10
2022-10-02T07:36:59.395Z,28.80
2022-10-02T07:40:06.799Z,23.60
2022-10-02T07:43:14.242Z,26.30
2022-10-02T07:46:21.930Z,29.80
2022-10-02T07:49:29.862Z,28.60
2022-10-02T07:52:37.414Z,20.50
2022-10-02T07:55:45.102Z,29.70
2022-10-02T07:58:52.977Z,26.50
2022-10-02T08:02:00.674Z,22.40
2022-10-02T08:05:08.157Z,23.10
2022-10-02T08:08:15.693Z,27.70
2022-10-02T08:11:22.827Z,20.20
2022-10-02T08:14:30.597Z,13.00
2022-10-02T08:17:38.059Z,16.30
2022-10-02T08:20:45.579Z,21.20
2022-10-02T08:23:53.372Z,17.00
2022-10-02T08:27:00.950Z,21.20
2022-10-02T08:30:08.623Z,17.50
2022-10-02T08:33:16.613Z,20.00
2022-10-02T08:36:23.826Z,18.40
2022-10-02T08:39:31.778Z,15.80
2022-10-02T08:42:39.695Z,18.90
2022-10-02T08:45:47.694Z,20.00
2022-10-02T08:48:55.616Z,17.20
2022-10-02T08:52:03.476Z,15.50
2022-10-02T08:55:10.531Z,16.20
2022-10-02T08:58:18.400Z,15.70
2022-10-02T09:01:25.840Z,15.00
2022-10-02T09:04:33.411Z,13.50
2022-10-02T09:07:40.952Z,20.40
2022-10-02T09:10:48.491Z,14.60
2022-10-02T09:13:55.973Z,18.90
2022-10-02T09:17:03.893Z,13.20
2022-10-02T09:20:11.375Z,12.40
2022-10-02T09:23:19.023Z,13.90
2022-10-02T09:26:26.588Z,15.00
2022-10-02T09:29:34.627Z,13.60
2022-10-02T09:32:42.181Z,14.70
2022-10-02T09:35:49.819Z,17.10
2022-10-02T09:38:57.779Z,12.30
2022-10-02T09:42:04.938Z,10.10
2022-10-02T09:45:12.642Z,12.30
2022-10-02T09:48:20.603Z,8.20
2022-10-02T09:51:27.841Z,9.70
2022-10-02T09:54:35.667Z,12.90
2022-10-02T09:57:43.756Z,12.10
2022-10-02T10:00:50.935Z,11.50
2022-10-02T10:03:58.763Z,8.60
2022-10-02T10:07:06.309Z,8.40
2022-10-02T10:10:13.741Z,5.60
2022-10-02T10:13:21.528Z,9.30
2022-10-02T10:16:28.933Z,13.80
2022-10-02T10:19:36.511Z,6.90
2022-10-02T10:22:44.443Z,11.20
2022-10-02T10:25:51.563Z,7.50
2022-10-02T10:28:58.990Z,6.60
2022-10-02T10:32:06.551Z,8.90
2022-10-02T10:35:14.107Z,8.10
2022-10-02T10:38:21.675Z,8.70
2022-10-02T10:41:29.178Z,10.10
2022-10-02T10:44:37.056Z,6.10
2022-10-02T10:47:44.220Z,7.80
2022-10-02T10:50:51.690Z,7.10
2022-10-02T10:54:01.935Z,7.10
2022-10-02T10:57:09.332Z,4.60
2022-10-02T11:00:17.292Z,8.30
2022-10-02T11:03:24.973Z,10.40
2022-10-02T11:06:32.086Z,6.90
2022-10-02T11:09:40.035Z,7.40
2022-10-02T11:12:47.897Z,7.90
2022-10-02T11:15:55.235Z,8.60
2022-10-02T11:19:03.040Z,6.40
2022-10-02T11:22:10.180Z,5.70
2022-10-02T11:25:17.758Z,6.90
2022-10-02T11:28:25.910Z,6.50
2022-10-02T11:31:34.274Z,7.60
2022-10-02T11:34:42.856Z,9.10
2022-10-02T11:37:50.924Z,9.10
2022-10-02T11:40:58.941Z,9.60
2022-10-02T11:44:08.206Z,9.20
2022-10-02T11:47:16.727Z,7.50
2022-10-02T11:50:25.508Z,9.20
2022-10-02T11:53:34.386Z,6.30
2022-10-02T11:56:42.486Z,5.60
2022-10-02T11:59:50.394Z,7.60
2022-10-02T12:02:59.814Z,7.40
2022-10-02T12:06:08.743Z,8.30
2022-10-02T12:09:16.516Z,5.60
2022-10-02T12:12:27.718Z,5.30
2022-10-02T12:15:25.741Z,4.40
2022-10-02T12:18:34.371Z,6.70
2022-10-02T12:21:42.394Z,5.70
2022-10-02T12:24:54.731Z,8.40
2022-10-02T12:27:53.332Z,8.20
2022-10-02T12:31:01.787Z,7.60
2022-10-02T12:34:10.567Z,8.50
2022-10-02T12:37:18.579Z,5.30
2022-10-02T12:40:27.056Z,5.60
2022-10-02T12:43:35.380Z,11.20
2022-10-02T12:46:43.844Z,4.60
2022-10-02T12:49:52.140Z,5.50
2022-10-02T12:53:00.133Z,5.80
2022-10-02T12:56:08.975Z,3.00
2022-10-02T12:59:17.326Z,2.70
2022-10-02T13:02:42.849Z,3.70
2022-10-02T13:05:30.477Z,2.90
2022-10-02T13:08:39.646Z,5.60
2022-10-02T13:11:47.240Z,3.50
2022-10-02T13:14:55.023Z,4.40
2022-10-02T13:18:03.705Z,2.20
2022-10-02T13:21:11.095Z,4.80
2022-10-02T13:24:19.468Z,3.80
2022-10-02T13:27:31.272Z,5.40
2022-10-02T13:30:28.789Z,7.40
2022-10-02T13:33:37.368Z,13.10
2022-10-02T13:36:45.591Z,8.40
2022-10-02T13:39:53.791Z,5.50
2022-10-02T13:43:02.572Z,3.10
2022-10-02T13:46:10.533Z,5.90
2022-10-02T13:49:18.345Z,3.40
2022-10-02T13:52:25.775Z,4.70
2022-10-02T13:55:33.803Z,5.90
2022-10-02T13:58:42.197Z,3.70
2022-10-02T14:01:50.495Z,4.80
2022-10-02T14:04:59.333Z,6.40
2022-10-02T14:08:07.261Z,7.00
2022-10-02T14:11:15.370Z,4.00
2022-10-02T14:14:23.596Z,7.40
2022-10-02T14:17:31.113Z,6.80
2022-10-02T14:20:39.524Z,7.20
2022-10-02T14:23:47.193Z,4.70
2022-10-02T14:26:54.705Z,5.50
2022-10-02T14:30:03.289Z,6.40
2022-10-02T14:33:11.619Z,7.80
2022-10-02T14:36:19.127Z,8.00
2022-10-02T14:39:27.672Z,6.30
2022-10-02T14:42:36.102Z,7.50
2022-10-02T14:45:44.269Z,5.10
2022-10-02T14:48:52.403Z,2.80
2022-10-02T14:52:00.347Z,5.30
2022-10-02T14:55:08.495Z,3.60
2022-10-02T14:58:16.637Z,3.80
2022-10-02T15:01:24.273Z,5.00
2022-10-02T15:04:32.785Z,6.50
2022-10-02T15:07:40.902Z,4.00
2022-10-02T15:10:48.598Z,4.80
2022-10-02T15:13:56.853Z,5.50
2022-10-02T15:17:04.936Z,3.90
2022-10-02T15:20:12.808Z,2.40
2022-10-02T15:23:22.224Z,2.80
2022-10-02T15:26:30.685Z,3.50
2022-10-02T15:29:39.073Z,4.80
2022-10-02T15:32:46.706Z,5.20
2022-10-02T15:35:54.655Z,6.10
2022-10-02T15:39:02.306Z,5.40
2022-10-02T15:42:09.967Z,3.40
2022-10-02T15:45:17.578Z,7.70
2022-10-02T15:48:25.158Z,5.60
2022-10-02T15:51:32.867Z,2.10
2022-10-02T15:54:40.880Z,5.20
2022-10-02T15:57:48.249Z,4.00
2022-10-02T16:00:56.135Z,3.50
2022-10-02T16:04:03.782Z,3.60
2022-10-02T16:07:11.214Z,4.80
2022-10-02T16:10:18.629Z,9.70
2022-10-02T16:13:26.153Z,9.10
2022-10-02T16:16:34.090Z,4.90
2022-10-02T16:19:42.178Z,4.40
2022-10-02T16:22:50.733Z,7.70
2022-10-02T16:25:58.940Z,2.80
2022-10-02T16:29:07.670Z,3.30
2022-10-02T16:32:15.382Z,6.30
2022-10-02T16:35:23.380Z,6.20
2022-10-02T16:38:31.932Z,8.00
2022-10-02T16:41:39.312Z,6.90
2022-10-02T16:44:47.542Z,7.60
2022-10-02T16:47:55.606Z,7.50
2022-10-02T16:51:02.935Z,5.60
2022-10-02T16:54:10.855Z,6.60
2022-10-02T16:57:18.913Z,9.50
2022-10-02T17:00:26.027Z,5.10
2022-10-02T17:03:33.968Z,9.20
2022-10-02T17:06:41.419Z,6.20
2022-10-02T17:09:48.601Z,5.30
2022-10-02T17:12:58.027Z,9.90
2022-10-02T17:16:05.907Z,5.70
2022-10-02T17:19:13.609Z,9.20
2022-10-02T17:22:23.828Z,10.90
2022-10-02T17:25:24.648Z,7.30
2022-10-02T17:28:32.862Z,8.80
2022-10-02T17:31:40.682Z,10.20
2022-10-02T17:34:49.325Z,7.40
2022-10-02T17:37:57.083Z,10.10
2022-10-02T17:41:04.890Z,20.20
2022-10-02T17:44:13.064Z,12.90
2022-10-02T17:47:20.798Z,10.90
2022-10-02T17:50:28.408Z,7.00
2022-10-02T17:53:36.772Z,9.60
2022-10-02T17:56:43.979Z,13.90
2022-10-02T17:59:51.700Z,15.80
2022-10-02T18:03:00.093Z,11.50
2022-10-02T18:06:07.423Z,11.80
2022-10-02T18:09:15.641Z,13.40
2022-10-02T18:12:23.813Z,13.30
2022-10-02T18:15:31.275Z,8.30
2022-10-02T18:18:39.078Z,12.00
2022-10-02T18:21:47.193Z,14.80
2022-10-02T18:24:54.567Z,9.80
2022-10-02T18:28:03.001Z,10.70
2022-10-02T18:31:11.073Z,14.60
2022-10-02T18:34:18.708Z,13.00
2022-10-02T18:37:26.821Z,12.70
2022-10-02T18:40:34.630Z,10.90
2022-10-02T18:43:42.431Z,13.00
2022-10-02T18:46:50.703Z,15.10
2022-10-02T18:49:58.643Z,9.80
2022-10-02T18:53:06.302Z,18.30
2022-10-02T18:56:14.014Z,10.80
2022-10-02T18:59:21.813Z,17.30
2022-10-02T19:02:29.676Z,13.80
2022-10-02T19:05:37.245Z,22.00
2022-10-02T19:08:45.435Z,12.00
2022-10-02T19:11:53.185Z,14.10
2022-10-02T19:15:00.907Z,18.90
2022-10-02T19:18:08.628Z,18.00
2022-10-02T19:21:16.308Z,17.80
2022-10-02T19:24:23.919Z,14.80
2022-10-02T19:27:32.383Z,21.50
2022-10-02T19:30:43.493Z,24.10
2022-10-02T19:33:42.760Z,15.90
2022-10-02T19:36:51.023Z,13.70
2022-10-02T19:39:58.444Z,14.50
2022-10-02T19:43:06.615Z,11.60
2022-10-02T19:46:13.991Z,14.10
2022-10-02T19:49:21.588Z,17.80
2022-10-02T19:52:29.807Z,10.00
2022-10-02T19:55:37.083Z,15.40
2022-10-02T19:58:44.782Z,17.80
2022-10-02T20:01:52.929Z,13.80
2022-10-02T20:05:00.281Z,18.60
2022-10-02T20:08:08.191Z,17.90
2022-10-02T20:11:15.968Z,16.80
2022-10-02T20:14:23.642Z,15.30
2022-10-02T20:17:31.473Z,13.00
2022-10-02T20:20:39.415Z,15.40
2022-10-02T20:23:47.251Z,13.50
2022-10-02T20:26:54.622Z,20.40
2022-10-02T20:30:02.126Z,16.00
2022-10-02T20:33:09.886Z,10.60
2022-10-02T20:36:17.388Z,14.90
2022-10-02T20:39:25.410Z,16.50
2022-10-02T20:42:33.009Z,15.00
2022-10-02T20:45:40.640Z,15.80
2022-10-02T20:49:07.623Z,19.20
2022-10-02T20:51:53.512Z,17.20
2022-10-02T20:55:01.332Z,13.50
2022-10-02T20:58:09.271Z,11.60
2022-10-02T21:01:17.108Z,20.20
2022-10-02T21:04:24.683Z,15.50
2022-10-02T21:07:32.886Z,15.90
2022-10-02T21:10:40.104Z,17.30
2022-10-02T21:13:48.075Z,16.40
2022-10-02T21:16:56.221Z,16.10
2022-10-02T21:20:03.476Z,22.90
2022-10-02T21:23:11.599Z,15.20
2022-10-02T21:26:19.171Z,15.70
2022-10-02T21:29:26.960Z,21.30
2022-10-02T21:32:34.962Z,16.40
2022-10-02T21:35:42.309Z,16.80
2022-10-02T21:38:50.480Z,17.80
2022-10-02T21:41:58.128Z,17.50
2022-10-02T21:45:06.265Z,17.80
2022-10-02T21:48:13.972Z,20.60
2022-10-02T21:51:21.695Z,17.10
2022-10-02T21:54:29.853Z,14.90
2022-10-02T21:57:37.482Z,15.70
2022-10-02T22:00:45.206Z,21.70
2022-10-02T22:03:53.396Z,21.40
2022-10-02T22:07:00.566Z,18.20
2022-10-02T22:10:08.645Z,17.10
2022-10-02T22:13:15.816Z,19.90
2022-10-02T22:16:23.903Z,24.10
2022-10-02T22:19:31.658Z,16.10
2022-10-02T22:22:38.881Z,14.60
2022-10-02T22:25:46.945Z,26.50
2022-10-02T22:28:54.849Z,16.30
2022-10-02T22:32:02.100Z,23.60
2022-10-02T22:35:10.178Z,22.80
2022-10-02T22:38:18.285Z,21.80
2022-10-02T22:41:25.947Z,18.80
2022-10-02T22:44:33.664Z,18.50
2022-10-02T22:47:41.462Z,21.40
2022-10-02T22:50:49.175Z,19.90
2022-10-02T22:53:56.989Z,21.00
2022-10-02T22:57:04.716Z,25.40
2022-10-02T23:00:12.386Z,21.10
2022-10-02T23:03:20.109Z,16.90
2022-10-02T23:06:30.740Z,17.40
2022-10-02T23:09:28.195Z,24.20
2022-10-02T23:12:36.821Z,24.30
2022-10-02T23:15:44.803Z,19.70
2022-10-02T23:18:52.519Z,23.00
2022-10-02T23:22:00.092Z,26.70
2022-10-02T23:25:08.040Z,19.00
2022-10-02T23:28:15.396Z,21.70
2022-10-02T23:31:23.349Z,21.30
2022-10-02T23:34:31.303Z,17.80
2022-10-02T23:37:38.600Z,24.00
2022-10-02T23:40:46.605Z,26.70
2022-10-02T23:43:54.126Z,26.50
2022-10-02T23:47:01.358Z,21.40
2022-10-02T23:50:09.436Z,19.00
2022-10-02T23:53:16.759Z,18.80
2022-10-02T23:56:24.779Z,21.50
2022-10-02T23:59:32.407Z,19.00
